sensor_id;sensor_type;location;lat;lon;timestamp;pressure;altitude;pressure_sealevel;temperature;humidity
20987;BME280;10652;50.306;8.570;2023-04-19T00:00:16;98805.19;;;7.81;100.00
20987;BME280;10652;50.306;8.570;2023-04-19T00:04:19;98800.78;;;7.85;100.00
20987;BME280;10652;50.306;8.570;2023-04-19T00:08:22;98798.97;;;7.87;100.00
20987;BME280;10652;50.306;8.570;2023-04-19T00:12:24;98799.91;;;7.85;100.00
20987;BME280;10652;50.306;8.570;2023-04-19T00:16:26;98799.06;;;7.82;100.00
20987;BME280;10652;50.306;8.570;2023-04-19T00:20:28;98788.69;;;7.79;100.00
20987;BME280;10652;50.306;8.570;2023-04-19T00:24:30;98790.44;;;7.79;100.00
20987;BME280;10652;50.306;8.570;2023-04-19T00:28:33;98791.41;;;7.76;100.00
20987;BME280;10652;50.306;8.570;2023-04-19T00:32:35;98785.25;;;7.77;100.00
20987;BME280;10652;50.306;8.570;2023-04-19T00:36:37;98783.47;;;7.79;100.00
20987;BME280;10652;50.306;8.570;2023-04-19T00:40:40;98781.75;;;7.78;100.00
20987;BME280;10652;50.306;8.570;2023-04-19T00:44:42;98777.56;;;7.71;100.00
20987;BME280;10652;50.306;8.570;2023-04-19T00:48:45;98779.31;;;7.71;100.00
20987;BME280;10652;50.306;8.570;2023-04-19T00:52:47;98770.69;;;7.67;100.00
20987;BME280;10652;50.306;8.570;2023-04-19T00:56:50;98763.75;;;7.65;100.00
20987;BME280;10652;50.306;8.570;2023-04-19T01:00:52;98770.91;;;7.58;100.00
20987;BME280;10652;50.306;8.570;2023-04-19T01:04:54;98766.63;;;7.54;100.00
20987;BME280;10652;50.306;8.570;2023-04-19T01:08:57;98751.91;;;7.50;100.00
20987;BME280;10652;50.306;8.570;2023-04-19T01:12:59;98751.91;;;7.50;100.00
20987;BME280;10652;50.306;8.570;2023-04-19T01:17:01;98741.53;;;7.47;100.00
20987;BME280;10652;50.306;8.570;2023-04-19T01:21:03;98734.66;;;7.43;100.00
20987;BME280;10652;50.306;8.570;2023-04-19T01:25:06;98739.13;;;7.38;100.00
20987;BME280;10652;50.306;8.570;2023-04-19T01:29:08;98729.66;;;7.34;100.00
20987;BME280;10652;50.306;8.570;2023-04-19T01:33:12;98720.31;;;7.22;100.00
20987;BME280;10652;50.306;8.570;2023-04-19T01:37:14;98724.84;;;7.16;100.00
20987;BME280;10652;50.306;8.570;2023-04-19T01:41:16;98721.47;;;7.11;100.00
20987;BME280;10652;50.306;8.570;2023-04-19T01:45:18;98723.22;;;7.10;100.00
20987;BME280;10652;50.306;8.570;2023-04-19T01:49:24;98713.53;;;7.15;100.00
20987;BME280;10652;50.306;8.570;2023-04-19T01:53:26;98721.19;;;7.23;100.00
20987;BME280;10652;50.306;8.570;2023-04-19T01:57:29;98712.44;;;7.25;100.00
20987;BME280;10652;50.306;8.570;2023-04-19T02:01:32;98715.91;;;7.26;100.00
20987;BME280;10652;50.306;8.570;2023-04-19T02:05:34;98706.22;;;7.29;100.00
20987;BME280;10652;50.306;8.570;2023-04-19T02:09:37;98714.81;;;7.34;100.00
20987;BME280;10652;50.306;8.570;2023-04-19T02:13:39;98707.78;;;7.36;100.00
20987;BME280;10652;50.306;8.570;2023-04-19T02:17:42;98703.38;;;7.40;100.00
20987;BME280;10652;50.306;8.570;2023-04-19T02:21:44;98704.25;;;7.39;100.00
20987;BME280;10652;50.306;8.570;2023-04-19T02:25:48;98700.78;;;7.38;100.00
20987;BME280;10652;50.306;8.570;2023-04-19T02:29:50;98706.88;;;7.39;100.00
20987;BME280;10652;50.306;8.570;2023-04-19T02:33:52;98699.94;;;7.36;100.00
20987;BME280;10652;50.306;8.570;2023-04-19T02:37:54;98703.50;;;7.34;100.00
20987;BME280;10652;50.306;8.570;2023-04-19T02:41:57;98694.78;;;7.35;100.00
20987;BME280;10652;50.306;8.570;2023-04-19T02:46:00;98694.84;;;7.32;100.00
20987;BME280;10652;50.306;8.570;2023-04-19T02:50:03;98687.09;;;7.27;100.00
20987;BME280;10652;50.306;8.570;2023-04-19T02:54:08;98690.63;;;7.26;100.00
20987;BME280;10652;50.306;8.570;2023-04-19T02:58:10;98700.22;;;7.26;100.00
20987;BME280;10652;50.306;8.570;2023-04-19T03:02:18;98694.06;;;7.27;100.00
20987;BME280;10652;50.306;8.570;2023-04-19T03:06:20;98692.38;;;7.26;100.00
20987;BME280;10652;50.306;8.570;2023-04-19T03:10:24;98679.34;;;7.24;100.00
20987;BME280;10652;50.306;8.570;2023-04-19T03:14:26;98681.00;;;7.27;100.00
20987;BME280;10652;50.306;8.570;2023-04-19T03:18:28;98675.88;;;7.24;100.00
20987;BME280;10652;50.306;8.570;2023-04-19T03:22:31;98675.00;;;7.23;100.00
20987;BME280;10652;50.306;8.570;2023-04-19T03:26:33;98674.13;;;7.23;100.00
20987;BME280;10652;50.306;8.570;2023-04-19T03:30:36;98670.72;;;7.21;100.00
20987;BME280;10652;50.306;8.570;2023-04-19T03:34:38;98676.75;;;7.23;100.00
20987;BME280;10652;50.306;8.570;2023-04-19T03:38:40;98674.13;;;7.23;100.00
20987;BME280;10652;50.306;8.570;2023-04-19T03:42:46;98658.41;;;7.26;100.00
20987;BME280;10652;50.306;8.570;2023-04-19T03:47:04;98665.41;;;7.24;100.00
20987;BME280;10652;50.306;8.570;2023-04-19T03:51:12;98653.25;;;7.23;100.00
20987;BME280;10652;50.306;8.570;2023-04-19T03:55:16;98650.72;;;7.18;100.00
20987;BME280;10652;50.306;8.570;2023-04-19T03:59:18;98658.53;;;7.20;100.00
20987;BME280;10652;50.306;8.570;2023-04-19T04:03:21;98656.81;;;7.19;100.00
20987;BME280;10652;50.306;8.570;2023-04-19T04:07:24;98652.53;;;7.16;100.00
20987;BME280;10652;50.306;8.570;2023-04-19T04:11:27;98652.59;;;7.13;100.00
20987;BME280;10652;50.306;8.570;2023-04-19T04:15:29;98664.81;;;7.13;100.00
20987;BME280;10652;50.306;8.570;2023-04-19T04:19:32;98657.78;;;7.15;100.00
20987;BME280;10652;50.306;8.570;2023-04-19T04:23:35;98658.69;;;7.14;100.00
20987;BME280;10652;50.306;8.570;2023-04-19T04:27:42;98664.00;;;7.11;100.00
20987;BME280;10652;50.306;8.570;2023-04-19T04:31:53;98667.56;;;7.07;100.00
20987;BME280;10652;50.306;8.570;2023-04-19T04:35:59;98663.25;;;7.04;100.00
20987;BME280;10652;50.306;8.570;2023-04-19T04:40:06;98665.84;;;7.06;100.00
20987;BME280;10652;50.306;8.570;2023-04-19T04:44:09;98657.16;;;7.05;100.00
20987;BME280;10652;50.306;8.570;2023-04-19T04:48:24;98656.28;;;7.05;100.00
20987;BME280;10652;50.306;8.570;2023-04-19T04:52:26;98651.91;;;7.07;100.00
20987;BME280;10652;50.306;8.570;2023-04-19T04:56:36;98659.66;;;7.10;100.00
20987;BME280;10652;50.306;8.570;2023-04-19T05:00:38;98658.84;;;7.08;100.00
20987;BME280;10652;50.306;8.570;2023-04-19T05:04:43;98652.69;;;7.09;100.00
20987;BME280;10652;50.306;8.570;2023-04-19T05:08:45;98657.94;;;7.09;100.00
20987;BME280;10652;50.306;8.570;2023-04-19T05:12:55;98662.25;;;7.10;100.00
20987;BME280;10652;50.306;8.570;2023-04-19T05:16:58;98658.69;;;7.14;100.00
20987;BME280;10652;50.306;8.570;2023-04-19T05:21:00;98656.03;;;7.17;100.00
20987;BME280;10652;50.306;8.570;2023-04-19T05:25:06;98655.09;;;7.18;100.00
20987;BME280;10652;50.306;8.570;2023-04-19T05:29:08;98654.22;;;7.19;100.00
20987;BME280;10652;50.306;8.570;2023-04-19T05:33:29;98656.78;;;7.22;100.00
20987;BME280;10652;50.306;8.570;2023-04-19T05:37:32;98651.47;;;7.25;100.00
20987;BME280;10652;50.306;8.570;2023-04-19T05:41:34;98647.03;;;7.27;100.00
20987;BME280;10652;50.306;8.570;2023-04-19T05:45:36;98646.97;;;7.30;100.00
20987;BME280;10652;50.306;8.570;2023-04-19T05:49:39;98645.88;;;7.40;100.00
20987;BME280;10652;50.306;8.570;2023-04-19T05:53:52;98665.81;;;7.44;100.00
20987;BME280;10652;50.306;8.570;2023-04-19T05:57:58;98647.56;;;7.41;100.00
20987;BME280;10652;50.306;8.570;2023-04-19T06:02:01;98639.91;;;7.33;100.00
20987;BME280;10652;50.306;8.570;2023-04-19T06:06:04;98646.94;;;7.31;98.98
20987;BME280;10652;50.306;8.570;2023-04-19T06:10:07;98652.97;;;7.35;99.42
20987;BME280;10652;50.306;8.570;2023-04-19T06:14:10;98639.16;;;7.30;96.76
20987;BME280;10652;50.306;8.570;2023-04-19T06:18:13;98643.47;;;7.31;96.04
20987;BME280;10652;50.306;8.570;2023-04-19T06:22:21;98660.06;;;7.28;94.16
20987;BME280;10652;50.306;8.570;2023-04-19T06:26:23;98656.69;;;7.25;92.41
20987;BME280;10652;50.306;8.570;2023-04-19T06:30:25;98646.22;;;7.26;91.83
20987;BME280;10652;50.306;8.570;2023-04-19T06:34:27;98646.00;;;7.34;91.70
20987;BME280;10652;50.306;8.570;2023-04-19T06:38:29;98651.16;;;7.37;89.29
20987;BME280;10652;50.306;8.570;2023-04-19T06:42:31;98647.56;;;7.41;88.20
20987;BME280;10652;50.306;8.570;2023-04-19T06:46:34;98655.78;;;7.61;88.37
20987;BME280;10652;50.306;8.570;2023-04-19T06:50:36;98647.81;;;7.66;85.63
20987;BME280;10652;50.306;8.570;2023-04-19T06:54:38;98650.47;;;7.64;84.64
20987;BME280;10652;50.306;8.570;2023-04-19T06:58:40;98637.31;;;7.67;84.65
20987;BME280;10652;50.306;8.570;2023-04-19T07:02:42;98650.41;;;7.67;82.66
20987;BME280;10652;50.306;8.570;2023-04-19T07:06:47;98642.72;;;7.61;82.70
20987;BME280;10652;50.306;8.570;2023-04-19T07:10:50;98640.19;;;7.58;81.41
20987;BME280;10652;50.306;8.570;2023-04-19T07:14:53;98624.16;;;7.70;82.35
20987;BME280;10652;50.306;8.570;2023-04-19T07:18:58;98618.56;;;7.84;80.62
20987;BME280;10652;50.306;8.570;2023-04-19T07:23:00;98609.69;;;7.90;78.44
20987;BME280;10652;50.306;8.570;2023-04-19T07:27:02;98613.59;;;8.06;79.00
20987;BME280;10652;50.306;8.570;2023-04-19T07:31:04;98596.63;;;8.22;77.33
20987;BME280;10652;50.306;8.570;2023-04-19T07:35:06;98591.78;;;8.38;75.44
20987;BME280;10652;50.306;8.570;2023-04-19T07:39:08;98610.66;;;8.49;73.89
20987;BME280;10652;50.306;8.570;2023-04-19T07:43:10;98603.34;;;8.58;72.79
20987;BME280;10652;50.306;8.570;2023-04-19T07:47:12;98620.78;;;8.59;71.91
20987;BME280;10652;50.306;8.570;2023-04-19T07:51:15;98607.25;;;8.45;72.89
20987;BME280;10652;50.306;8.570;2023-04-19T07:55:18;98597.50;;;8.50;74.10
20987;BME280;10652;50.306;8.570;2023-04-19T07:59:20;98606.97;;;8.54;72.39
20987;BME280;10652;50.306;8.570;2023-04-19T08:03:22;98595.69;;;8.52;71.77
20987;BME280;10652;50.306;8.570;2023-04-19T08:07:24;98596.28;;;8.62;72.57
20987;BME280;10652;50.306;8.570;2023-04-19T08:11:27;98606.75;;;8.62;70.70
20987;BME280;10652;50.306;8.570;2023-04-19T08:15:29;98594.75;;;8.55;71.83
20987;BME280;10652;50.306;8.570;2023-04-19T08:19:34;98603.59;;;8.51;71.05
20987;BME280;10652;50.306;8.570;2023-04-19T08:23:36;98608.59;;;8.58;71.59
20987;BME280;10652;50.306;8.570;2023-04-19T08:27:49;98605.03;;;8.61;70.41
20987;BME280;10652;50.306;8.570;2023-04-19T08:31:51;98602.72;;;8.80;70.93
20987;BME280;10652;50.306;8.570;2023-04-19T08:35:53;98624.31;;;9.14;68.37
20987;BME280;10652;50.306;8.570;2023-04-19T08:39:55;98605.03;;;9.17;68.10
20987;BME280;10652;50.306;8.570;2023-04-19T08:43:58;98606.22;;;9.33;68.12
20987;BME280;10652;50.306;8.570;2023-04-19T08:48:01;98600.19;;;9.57;65.84
20987;BME280;10652;50.306;8.570;2023-04-19T08:52:05;98608.38;;;9.73;63.47
20987;BME280;10652;50.306;8.570;2023-04-19T08:56:07;98607.44;;;9.75;65.17
20987;BME280;10652;50.306;8.570;2023-04-19T09:00:19;98596.78;;;9.80;64.60
20987;BME280;10652;50.306;8.570;2023-04-19T09:04:21;98590.84;;;9.75;62.56
20987;BME280;10652;50.306;8.570;2023-04-19T09:08:39;98592.38;;;10.05;64.22
20987;BME280;10652;50.306;8.570;2023-04-19T09:12:42;98587.69;;;10.13;60.61
20987;BME280;10652;50.306;8.570;2023-04-19T09:16:44;98607.78;;;10.14;60.48
20987;BME280;10652;50.306;8.570;2023-04-19T09:20:47;98582.72;;;10.06;60.70
20987;BME280;10652;50.306;8.570;2023-04-19T09:24:49;98581.34;;;9.95;61.48
20987;BME280;10652;50.306;8.570;2023-04-19T09:28:59;98593.50;;;9.98;62.17
20987;BME280;10652;50.306;8.570;2023-04-19T09:33:06;98588.34;;;9.95;62.69
20987;BME280;10652;50.306;8.570;2023-04-19T09:37:12;98582.94;;;9.99;62.10
20987;BME280;10652;50.306;8.570;2023-04-19T09:41:33;98579.94;;;10.10;62.08
20987;BME280;10652;50.306;8.570;2023-04-19T09:45:44;98568.81;;;10.03;62.10
20987;BME280;10652;50.306;8.570;2023-04-19T09:49:47;98578.13;;;10.12;62.79
20987;BME280;10652;50.306;8.570;2023-04-19T09:53:50;98574.88;;;10.29;62.09
20987;BME280;10652;50.306;8.570;2023-04-19T09:57:53;98568.53;;;10.34;58.93
20987;BME280;10652;50.306;8.570;2023-04-19T10:01:57;98571.09;;;10.36;58.23
20987;BME280;10652;50.306;8.570;2023-04-19T10:06:01;98560.56;;;10.36;57.68
20987;BME280;10652;50.306;8.570;2023-04-19T10:10:18;98560.41;;;10.40;58.84
20987;BME280;10652;50.306;8.570;2023-04-19T10:14:27;98548.88;;;10.44;59.15
20987;BME280;10652;50.306;8.570;2023-04-19T10:18:34;98558.81;;;10.36;58.60
20987;BME280;10652;50.306;8.570;2023-04-19T10:22:37;98564.50;;;10.26;59.28
20987;BME280;10652;50.306;8.570;2023-04-19T10:31:04;98535.00;;;10.41;56.33
20987;BME280;10652;50.306;8.570;2023-04-19T10:35:20;98534.47;;;10.55;56.80
20987;BME280;10652;50.306;8.570;2023-04-19T10:39:39;98551.59;;;10.65;55.15
20987;BME280;10652;50.306;8.570;2023-04-19T10:43:47;98524.63;;;10.60;56.67
20987;BME280;10652;50.306;8.570;2023-04-19T10:47:50;98519.09;;;10.67;55.78
20987;BME280;10652;50.306;8.570;2023-04-19T10:51:53;98534.06;;;10.65;54.10
20987;BME280;10652;50.306;8.570;2023-04-19T10:55:58;98508.38;;;10.50;54.76
20987;BME280;10652;50.306;8.570;2023-04-19T11:00:17;98507.72;;;10.67;54.71
20987;BME280;10652;50.306;8.570;2023-04-19T11:04:22;98506.00;;;10.87;55.59
20987;BME280;10652;50.306;8.570;2023-04-19T11:08:28;98491.53;;;11.19;53.82
20987;BME280;10652;50.306;8.570;2023-04-19T11:12:30;98499.91;;;11.29;53.30
20987;BME280;10652;50.306;8.570;2023-04-19T11:16:32;98494.53;;;11.10;50.31
20987;BME280;10652;50.306;8.570;2023-04-19T11:20:51;98490.69;;;11.19;50.19
20987;BME280;10652;50.306;8.570;2023-04-19T11:24:53;98499.91;;;11.07;50.11
20987;BME280;10652;50.306;8.570;2023-04-19T11:28:55;98493.16;;;10.80;51.02
20987;BME280;10652;50.306;8.570;2023-04-19T11:32:57;98474.41;;;10.89;50.61
20987;BME280;10652;50.306;8.570;2023-04-19T11:37:00;98471.31;;;11.21;48.42
20987;BME280;10652;50.306;8.570;2023-04-19T11:41:03;98467.03;;;11.39;47.35
20987;BME280;10652;50.306;8.570;2023-04-19T11:45:06;98460.84;;;11.20;47.61
20987;BME280;10652;50.306;8.570;2023-04-19T11:49:31;98453.28;;;11.12;48.02
20987;BME280;10652;50.306;8.570;2023-04-19T11:53:33;98454.19;;;11.31;49.13
20987;BME280;10652;50.306;8.570;2023-04-19T11:57:40;98461.00;;;11.35;46.11
20987;BME280;10652;50.306;8.570;2023-04-19T12:01:42;98444.72;;;11.27;46.42
20987;BME280;10652;50.306;8.570;2023-04-19T12:05:58;98439.97;;;11.35;45.39
20987;BME280;10652;50.306;8.570;2023-04-19T12:10:10;98434.03;;;11.51;45.90
20987;BME280;10652;50.306;8.570;2023-04-19T12:14:15;98449.88;;;11.49;42.57
20987;BME280;10652;50.306;8.570;2023-04-19T12:18:18;98429.84;;;11.26;42.62
20987;BME280;10652;50.306;8.570;2023-04-19T12:22:20;98427.38;;;11.23;42.69
20987;BME280;10652;50.306;8.570;2023-04-19T12:26:27;98429.84;;;11.26;42.36
20987;BME280;10652;50.306;8.570;2023-04-19T12:30:30;98426.56;;;11.42;43.65
20987;BME280;10652;50.306;8.570;2023-04-19T12:34:32;98406.25;;;11.64;41.79
20987;BME280;10652;50.306;8.570;2023-04-19T12:38:34;98427.94;;;11.69;39.43
20987;BME280;10652;50.306;8.570;2023-04-19T12:42:36;98411.00;;;11.56;39.71
20987;BME280;10652;50.306;8.570;2023-04-19T12:46:38;98400.22;;;11.62;41.71
20987;BME280;10652;50.306;8.570;2023-04-19T12:50:41;98415.81;;;11.85;42.83
20987;BME280;10652;50.306;8.570;2023-04-19T12:54:43;98407.59;;;11.91;40.97
20987;BME280;10652;50.306;8.570;2023-04-19T12:58:45;98402.50;;;11.88;37.86
20987;BME280;10652;50.306;8.570;2023-04-19T13:02:47;98392.47;;;11.96;38.47
20987;BME280;10652;50.306;8.570;2023-04-19T13:06:49;98387.69;;;12.04;37.60
20987;BME280;10652;50.306;8.570;2023-04-19T13:10:51;98386.69;;;12.07;38.14
20987;BME280;10652;50.306;8.570;2023-04-19T13:14:54;98381.44;;;11.88;35.29
20987;BME280;10652;50.306;8.570;2023-04-19T13:18:56;98369.84;;;11.92;35.17
20987;BME280;10652;50.306;8.570;2023-04-19T13:22:58;98393.69;;;11.89;33.66
20987;BME280;10652;50.306;8.570;2023-04-19T13:27:00;98371.19;;;11.82;34.35
20987;BME280;10652;50.306;8.570;2023-04-19T13:31:04;98371.81;;;11.87;35.25
20987;BME280;10652;50.306;8.570;2023-04-19T13:35:06;98380.16;;;11.78;31.99
20987;BME280;10652;50.306;8.570;2023-04-19T13:39:08;98364.06;;;11.47;32.84
20987;BME280;10652;50.306;8.570;2023-04-19T13:43:10;98361.94;;;11.55;33.59
20987;BME280;10652;50.306;8.570;2023-04-19T13:47:12;98360.44;;;11.68;33.17
20987;BME280;10652;50.306;8.570;2023-04-19T13:51:14;98355.19;;;11.68;32.37
20987;BME280;10652;50.306;8.570;2023-04-19T13:55:17;98348.56;;;11.59;33.13
20987;BME280;10652;50.306;8.570;2023-04-19T13:59:19;98340.47;;;11.64;32.73
20987;BME280;10652;50.306;8.570;2023-04-19T14:03:22;98339.28;;;11.71;34.81
20987;BME280;10652;50.306;8.570;2023-04-19T14:07:25;98345.50;;;11.87;35.95
20987;BME280;10652;50.306;8.570;2023-04-19T14:11:27;98339.81;;;11.77;35.21
20987;BME280;10652;50.306;8.570;2023-04-19T14:15:29;98330.78;;;11.83;35.57
20987;BME280;10652;50.306;8.570;2023-04-19T14:19:31;98331.91;;;11.96;35.90
20987;BME280;10652;50.306;8.570;2023-04-19T14:23:33;98327.72;;;11.92;36.19
20987;BME280;10652;50.306;8.570;2023-04-19T14:27:35;98329.50;;;11.73;37.94
20987;BME280;10652;50.306;8.570;2023-04-19T14:31:37;98321.47;;;11.76;37.63
20987;BME280;10652;50.306;8.570;2023-04-19T14:35:40;98325.31;;;11.69;37.38
20987;BME280;10652;50.306;8.570;2023-04-19T14:39:45;98317.13;;;11.75;37.18
20987;BME280;10652;50.306;8.570;2023-04-19T14:43:48;98306.03;;;12.04;38.71
20987;BME280;10652;50.306;8.570;2023-04-19T14:47:50;98307.16;;;12.53;39.56
20987;BME280;10652;50.306;8.570;2023-04-19T14:51:52;98299.13;;;12.20;37.69
20987;BME280;10652;50.306;8.570;2023-04-19T14:55:54;98299.81;;;12.24;37.73
20987;BME280;10652;50.306;8.570;2023-04-19T14:59:57;98295.50;;;12.40;37.82
20987;BME280;10652;50.306;8.570;2023-04-19T15:03:59;98292.66;;;12.09;38.24
20987;BME280;10652;50.306;8.570;2023-04-19T15:08:02;98301.44;;;11.91;37.18
20987;BME280;10652;50.306;8.570;2023-04-19T15:12:04;98295.72;;;11.82;38.35
20987;BME280;10652;50.306;8.570;2023-04-19T15:16:07;98306.59;;;11.94;38.28
20987;BME280;10652;50.306;8.570;2023-04-19T15:20:10;98297.19;;;11.88;39.27
20987;BME280;10652;50.306;8.570;2023-04-19T15:24:12;98296.09;;;11.75;38.33
20987;BME280;10652;50.306;8.570;2023-04-19T15:28:14;98305.19;;;11.68;37.89
20987;BME280;10652;50.306;8.570;2023-04-19T15:32:16;98303.34;;;11.70;38.15
20987;BME280;10652;50.306;8.570;2023-04-19T15:36:18;98300.34;;;11.40;38.36
20987;BME280;10652;50.306;8.570;2023-04-19T15:40:20;98300.66;;;11.34;38.73
20987;BME280;10652;50.306;8.570;2023-04-19T15:44:25;98291.47;;;11.04;38.45
20987;BME280;10652;50.306;8.570;2023-04-19T15:48:27;98289.59;;;10.87;39.34
20987;BME280;10652;50.306;8.570;2023-04-19T15:52:29;98292.13;;;10.70;38.83
20987;BME280;10652;50.306;8.570;2023-04-19T15:56:31;98309.59;;;10.71;39.86
20987;BME280;10652;50.306;8.570;2023-04-19T16:00:33;98298.44;;;10.66;39.34
20987;BME280;10652;50.306;8.570;2023-04-19T16:04:35;98298.38;;;10.67;38.96
20987;BME280;10652;50.306;8.570;2023-04-19T16:08:38;98295.03;;;10.43;38.13
20987;BME280;10652;50.306;8.570;2023-04-19T16:12:40;98294.81;;;10.28;38.46
20987;BME280;10652;50.306;8.570;2023-04-19T16:16:43;98308.97;;;10.24;38.98
20987;BME280;10652;50.306;8.570;2023-04-19T16:20:45;98304.66;;;10.23;38.33
20987;BME280;10652;50.306;8.570;2023-04-19T16:24:47;98301.31;;;10.19;38.05
20987;BME280;10652;50.306;8.570;2023-04-19T16:28:49;98308.50;;;10.14;38.23
20987;BME280;10652;50.306;8.570;2023-04-19T16:32:55;98319.28;;;10.08;37.60
20987;BME280;10652;50.306;8.570;2023-04-19T16:36:58;98305.59;;;10.00;37.85
20987;BME280;10652;50.306;8.570;2023-04-19T16:41:01;98306.75;;;9.93;38.21
20987;BME280;10652;50.306;8.570;2023-04-19T16:45:06;98301.88;;;9.84;38.43
20987;BME280;10652;50.306;8.570;2023-04-19T16:49:09;98304.88;;;9.75;39.43
20987;BME280;10652;50.306;8.570;2023-04-19T16:53:11;98303.50;;;9.65;39.15
20987;BME280;10652;50.306;8.570;2023-04-19T16:57:13;98298.59;;;9.55;39.46
20987;BME280;10652;50.306;8.570;2023-04-19T17:01:15;98296.38;;;9.45;38.59
20987;BME280;10652;50.306;8.570;2023-04-19T17:05:18;98306.03;;;9.44;39.17
20987;BME280;10652;50.306;8.570;2023-04-19T17:09:20;98297.25;;;9.45;38.41
20987;BME280;10652;50.306;8.570;2023-04-19T17:13:22;98289.19;;;9.50;39.26
20987;BME280;10652;50.306;8.570;2023-04-19T17:17:24;98283.00;;;9.52;38.30
20987;BME280;10652;50.306;8.570;2023-04-19T17:21:26;98290.88;;;9.52;37.88
20987;BME280;10652;50.306;8.570;2023-04-19T17:25:28;98283.78;;;9.54;39.16
20987;BME280;10652;50.306;8.570;2023-04-19T17:29:30;98295.19;;;9.53;39.25
20987;BME280;10652;50.306;8.570;2023-04-19T17:33:33;98295.28;;;9.50;39.46
20987;BME280;10652;50.306;8.570;2023-04-19T17:37:35;98298.56;;;9.57;39.68
20987;BME280;10652;50.306;8.570;2023-04-19T17:41:37;98294.16;;;9.57;38.90
20987;BME280;10652;50.306;8.570;2023-04-19T17:45:40;98297.25;;;9.45;38.62
20987;BME280;10652;50.306;8.570;2023-04-19T17:49:43;98297.25;;;9.45;38.93
20987;BME280;10652;50.306;8.570;2023-04-19T17:53:46;98299.19;;;9.40;38.64
20987;BME280;10652;50.306;8.570;2023-04-19T17:57:48;98296.84;;;9.33;37.96
20987;BME280;10652;50.306;8.570;2023-04-19T18:01:50;98300.28;;;9.35;38.39
20987;BME280;10652;50.306;8.570;2023-04-19T18:05:52;98299.66;;;9.28;38.26
20987;BME280;10652;50.306;8.570;2023-04-19T18:09:54;98297.22;;;9.24;40.25
20987;BME280;10652;50.306;8.570;2023-04-19T18:13:56;98303.31;;;9.24;38.82
20987;BME280;10652;50.306;8.570;2023-04-19T18:17:58;98301.75;;;9.19;38.65
20987;BME280;10652;50.306;8.570;2023-04-19T18:22:00;98298.63;;;9.09;39.46
20987;BME280;10652;50.306;8.570;2023-04-19T18:26:02;98306.13;;;8.95;39.17
20987;BME280;10652;50.306;8.570;2023-04-19T18:30:05;98305.16;;;8.74;38.93
20987;BME280;10652;50.306;8.570;2023-04-19T18:34:08;98309.16;;;8.59;39.67
20987;BME280;10652;50.306;8.570;2023-04-19T18:38:13;98299.97;;;8.48;40.09
20987;BME280;10652;50.306;8.570;2023-04-19T18:42:15;98306.47;;;8.36;40.27
20987;BME280;10652;50.306;8.570;2023-04-19T18:46:17;98304.25;;;8.25;40.83
20987;BME280;10652;50.306;8.570;2023-04-19T18:50:19;98308.22;;;8.09;41.96
20987;BME280;10652;50.306;8.570;2023-04-19T18:54:21;98306.16;;;7.93;42.84
20987;BME280;10652;50.306;8.570;2023-04-19T18:58:26;98320.66;;;7.76;43.74
20987;BME280;10652;50.306;8.570;2023-04-19T19:02:28;98320.53;;;7.52;44.13
20987;BME280;10652;50.306;8.570;2023-04-19T19:06:30;98322.06;;;7.31;45.14
20987;BME280;10652;50.306;8.570;2023-04-19T19:10:33;98325.19;;;7.13;45.38
20987;BME280;10652;50.306;8.570;2023-04-19T19:14:56;98329.13;;;6.97;45.64
20987;BME280;10652;50.306;8.570;2023-04-19T19:18:58;98333.72;;;6.88;45.29
20987;BME280;10652;50.306;8.570;2023-04-19T19:23:00;98338.06;;;6.88;45.19
20987;BME280;10652;50.306;8.570;2023-04-19T19:27:04;98331.19;;;6.85;45.78
20987;BME280;10652;50.306;8.570;2023-04-19T19:31:06;98339.31;;;6.75;46.75
20987;BME280;10652;50.306;8.570;2023-04-19T19:35:08;98336.44;;;6.53;48.02
20987;BME280;10652;50.306;8.570;2023-04-19T19:39:11;98338.75;;;6.30;48.50
20987;BME280;10652;50.306;8.570;2023-04-19T19:43:13;98335.75;;;6.10;48.99
20987;BME280;10652;50.306;8.570;2023-04-19T19:47:15;98342.81;;;6.04;49.64
20987;BME280;10652;50.306;8.570;2023-04-19T19:51:18;98343.34;;;5.83;50.39
20987;BME280;10652;50.306;8.570;2023-04-19T19:55:40;98345.25;;;5.77;50.16
20987;BME280;10652;50.306;8.570;2023-04-19T19:59:43;98334.94;;;5.72;50.45
20987;BME280;10652;50.306;8.570;2023-04-19T20:03:55;98326.56;;;5.58;51.01
20987;BME280;10652;50.306;8.570;2023-04-19T20:08:08;98338.88;;;5.50;51.92
20987;BME280;10652;50.306;8.570;2023-04-19T20:12:12;98335.69;;;5.39;52.01
20987;BME280;10652;50.306;8.570;2023-04-19T20:16:15;98333.06;;;5.39;52.32
20987;BME280;10652;50.306;8.570;2023-04-19T20:20:19;98326.13;;;5.39;52.81
20987;BME280;10652;50.306;8.570;2023-04-19T20:24:21;98328.63;;;5.44;52.90
20987;BME280;10652;50.306;8.570;2023-04-19T20:28:24;98328.66;;;5.41;53.23
20987;BME280;10652;50.306;8.570;2023-04-19T20:32:27;98325.13;;;5.45;53.66
20987;BME280;10652;50.306;8.570;2023-04-19T20:36:29;98324.38;;;5.40;53.82
20987;BME280;10652;50.306;8.570;2023-04-19T20:40:32;98326.34;;;5.29;54.25
20987;BME280;10652;50.306;8.570;2023-04-19T20:44:34;98327.41;;;5.19;54.66
20987;BME280;10652;50.306;8.570;2023-04-19T20:48:37;98318.06;;;5.10;55.41
20987;BME280;10652;50.306;8.570;2023-04-19T20:52:39;98313.88;;;5.03;55.58
20987;BME280;10652;50.306;8.570;2023-04-19T20:56:41;98321.72;;;5.01;56.09
20987;BME280;10652;50.306;8.570;2023-04-19T21:00:43;98320.81;;;5.02;56.46
20987;BME280;10652;50.306;8.570;2023-04-19T21:04:45;98308.63;;;5.04;56.76
20987;BME280;10652;50.306;8.570;2023-04-19T21:08:47;98312.19;;;5.00;56.67
20987;BME280;10652;50.306;8.570;2023-04-19T21:12:49;98311.56;;;4.88;56.80
20987;BME280;10652;50.306;8.570;2023-04-19T21:16:51;98305.50;;;4.89;57.38
20987;BME280;10652;50.306;8.570;2023-04-19T21:20:54;98303.94;;;4.80;57.08
20987;BME280;10652;50.306;8.570;2023-04-19T21:24:57;98297.13;;;4.73;57.33
20987;BME280;10652;50.306;8.570;2023-04-19T21:28:59;98294.28;;;4.41;58.40
20987;BME280;10652;50.306;8.570;2023-04-19T21:33:01;98308.69;;;4.11;58.97
20987;BME280;10652;50.306;8.570;2023-04-19T21:37:03;98299.38;;;3.99;59.92
20987;BME280;10652;50.306;8.570;2023-04-19T21:41:05;98292.44;;;3.98;60.49